Winchester, Missouri
Current Conditions -  °F | °C
As of 6:01 AM on Saturday 27 Dec 2014 (Local Time) from KSUS Reporting Station
Overcast Overcast  
Wind Chill: 50°   Ceiling: 2400
Heat Index: 50°   Visibility: 10mi
Dew Point: 46°   Wind: 6mph
Humidity: 87%   Direction: 200°SSW
Pressure: 30.05"   Gusts: NA
Location:  38.5691°N, 90.5462°W
Report Text: KSUS 271201Z 20005KT 10SM BKN024 BKN029 OVC035 10/08 A3005 RMK AO2 $
Loading
Personal Weather Stations






























Interactive Weather Map New forecast layout! Learn more

10-Day Weather Forecast

Advertisements
Track Severe Weather on mobile